Time;durP1;ratioP1;P1;durP2;ratioP2;P2;SDS_P1;SDS_P2;PMS_P1;PMS_P2;Temp;Humidity;BMP_temperature;BMP_pressure;BME280_temperature;BME280_humidity;BME280_pressure;Samples;Min_cycle;Max_cycle;Signal;HPM_P1;HPM_P2
2023/07/23 00:01:58;;;;;;;7.90;6.70;;;;;;;13.29;71.19;97231.67;105027;1261;100109;-74
2023/07/23 00:04:26;;;;;;;7.70;6.20;;;;;;;13.27;71.17;97232.32;104582;1261;95907;-74
2023/07/23 00:06:54;;;;;;;8.20;6.50;;;;;;;13.20;71.28;97233.54;104773;1258;96016;-74
2023/07/23 00:09:21;;;;;;;8.30;6.60;;;;;;;13.13;71.40;97230.71;104826;1280;99923;-74
2023/07/23 00:11:49;;;;;;;11.00;6.90;;;;;;;13.10;71.41;97226.60;104697;1264;100606;-75
2023/07/23 00:14:17;;;;;;;8.30;6.80;;;;;;;13.08;71.55;97229.30;104687;1261;99261;-74
2023/07/23 00:16:45;;;;;;;9.90;7.10;;;;;;;13.07;71.62;97228.90;104827;1260;96054;-74
2023/07/23 00:19:18;;;;;;;9.50;7.40;;;;;;;13.06;71.44;97235.30;104824;1277;97425;-76
2023/07/23 00:21:48;;;;;;;11.80;8.50;;;;;;;13.01;71.36;97239.05;104580;1270;99889;-76
2023/07/23 00:24:17;;;;;;;10.70;7.40;;;;;;;12.96;71.52;97236.70;104853;1262;100573;-76
2023/07/23 00:26:45;;;;;;;10.90;8.30;;;;;;;12.87;71.65;97235.25;104579;1257;99013;-76
2023/07/23 00:29:12;;;;;;;8.30;7.40;;;;;;;12.84;71.82;97233.70;104987;1259;96029;-76
2023/07/23 00:31:40;;;;;;;8.70;7.80;;;;;;;12.82;71.81;97229.90;104973;1255;97185;-75
2023/07/23 00:34:09;;;;;;;9.30;8.00;;;;;;;12.73;71.83;97229.23;104930;1261;99957;-76
2023/07/23 00:36:36;;;;;;;8.30;7.50;;;;;;;12.62;72.02;97230.41;104717;1263;100530;-75
2023/07/23 00:39:05;;;;;;;8.00;6.90;;;;;;;12.60;72.27;97232.60;105006;1256;99131;-76
2023/07/23 00:41:33;;;;;;;13.40;7.40;;;;;;;12.58;72.40;97234.50;104761;1261;96151;-76
2023/07/23 00:44:02;;;;;;;8.70;7.10;;;;;;;12.53;72.46;97232.54;104908;1269;95853;-75
2023/07/23 00:46:32;;;;;;;10.20;7.60;;;;;;;12.50;72.67;97233.16;104894;1256;99573;-72
2023/07/23 00:49:01;;;;;;;8.40;7.20;;;;;;;12.52;72.63;97231.14;104306;1272;100698;-72
2023/07/23 00:51:30;;;;;;;9.40;7.50;;;;;;;12.47;72.64;97231.98;104746;1264;98881;-72
2023/07/23 00:53:59;;;;;;;10.10;7.30;;;;;;;12.41;72.79;97230.19;104783;1257;97259;-72
2023/07/23 00:56:27;;;;;;;8.20;7.30;;;;;;;12.41;72.91;97231.95;104799;1262;96121;-72
2023/07/23 00:58:56;;;;;;;8.20;7.10;;;;;;;12.43;72.89;97226.39;104712;1256;101097;-74
2023/07/23 01:01:23;;;;;;;7.70;6.60;;;;;;;12.43;73.09;97228.52;104736;1265;101605;-74
2023/07/23 01:03:52;;;;;;;8.60;6.80;;;;;;;12.44;73.12;97229.83;104651;1281;100279;-74
2023/07/23 01:06:21;;;;;;;10.80;7.60;;;;;;;12.44;73.01;97229.27;104772;1279;95959;-74
2023/07/23 01:08:50;;;;;;;8.90;7.40;;;;;;;12.44;73.11;97230.48;104701;1263;97113;-74
2023/07/23 01:11:18;;;;;;;9.40;7.80;;;;;;;12.40;72.85;97231.61;104744;1259;99910;-74
2023/07/23 01:13:46;;;;;;;9.30;7.60;;;;;;;12.32;73.07;97227.96;104488;1267;100614;-74
2023/07/23 01:16:14;;;;;;;11.60;7.80;;;;;;;12.27;73.26;97231.45;104543;1266;98663;-75
2023/07/23 01:18:41;;;;;;;9.70;7.50;;;;;;;12.24;73.48;97230.77;104518;1265;95851;-76
2023/07/23 01:21:10;;;;;;;8.80;7.60;;;;;;;12.19;73.30;97225.70;104675;1263;96397;-75
2023/07/23 01:23:38;;;;;;;7.90;7.10;;;;;;;12.07;73.16;97224.09;104663;1264;100042;-75
2023/07/23 01:26:07;;;;;;;10.50;7.20;;;;;;;12.02;73.48;97225.19;104689;1258;101679;-75
2023/07/23 01:28:34;;;;;;;7.90;6.90;;;;;;;12.04;73.71;97229.05;104817;1259;98695;-75
2023/07/23 01:31:03;;;;;;;8.50;6.90;;;;;;;12.07;73.79;97230.75;104894;1263;96726;-84
2023/07/23 01:33:31;;;;;;;7.40;6.50;;;;;;;12.08;73.56;97227.91;104688;1267;98175;-83
2023/07/23 01:36:00;;;;;;;9.10;6.70;;;;;;;12.07;73.58;97226.69;104931;1260;100605;-72
2023/07/23 01:38:29;;;;;;;8.20;6.90;;;;;;;12.07;73.67;97223.12;104747;1274;100542;-72
2023/07/23 01:40:57;;;;;;;7.60;6.60;;;;;;;12.10;73.64;97223.13;104964;1258;100246;-73
2023/07/23 01:43:25;;;;;;;9.60;7.10;;;;;;;12.10;73.57;97223.17;104839;1258;97250;-72
2023/07/23 01:45:53;;;;;;;10.10;7.40;;;;;;;12.07;73.58;97222.68;104782;1256;97127;-72
2023/07/23 01:48:23;;;;;;;11.40;6.90;;;;;;;12.05;73.54;97224.70;104927;1264;101105;-72
2023/07/23 01:50:51;;;;;;;13.80;7.30;;;;;;;12.05;73.58;97226.41;104614;1257;100542;-76
2023/07/23 01:53:18;;;;;;;12.40;7.40;;;;;;;12.03;73.59;97221.44;104994;1257;98716;-73
2023/07/23 01:55:46;;;;;;;8.90;7.20;;;;;;;11.93;73.49;97217.71;104843;1261;96704;-74
2023/07/23 01:58:14;;;;;;;9.70;7.40;;;;;;;11.85;73.87;97220.82;104877;1256;96542;-74
2023/07/23 02:00:41;;;;;;;9.30;7.40;;;;;;;11.85;73.91;97222.73;105042;1256;100024;-72
2023/07/23 02:03:09;;;;;;;8.90;7.30;;;;;;;11.86;73.98;97226.80;104960;1256;101110;-72
2023/07/23 02:05:38;;;;;;;10.60;7.60;;;;;;;11.86;73.90;97227.34;105049;1260;100017;-72
2023/07/23 02:08:06;;;;;;;12.20;9.90;;;;;;;11.81;73.97;97227.65;104785;1263;96678;-72
2023/07/23 02:10:34;;;;;;;22.20;12.10;;;;;;;11.77;74.17;97228.85;104887;1261;97938;-72
2023/07/23 02:13:01;;;;;;;17.00;11.80;;;;;;;11.73;74.25;97230.28;104783;1264;101696;-72
2023/07/23 02:15:30;;;;;;;17.60;11.20;;;;;;;11.71;74.44;97231.98;104937;1261;100791;-74
2023/07/23 02:17:57;;;;;;;14.80;10.40;;;;;;;11.74;74.53;97232.17;104910;1256;98652;-75
2023/07/23 02:20:25;;;;;;;12.80;9.40;;;;;;;11.72;74.44;97230.83;104891;1255;97893;-76
2023/07/23 02:22:53;;;;;;;15.30;8.70;;;;;;;11.71;74.45;97229.66;104949;1278;98023;-76
2023/07/23 02:25:20;;;;;;;12.40;8.30;;;;;;;11.73;74.39;97234.05;104943;1262;101194;-75
2023/07/23 02:27:48;;;;;;;11.40;7.90;;;;;;;11.75;74.22;97235.77;104845;1259;100409;-76
2023/07/23 02:30:16;;;;;;;9.50;7.60;;;;;;;11.75;74.03;97238.30;105104;1253;109073;-75
2023/07/23 02:32:43;;;;;;;9.30;7.20;;;;;;;11.73;74.14;97238.34;105148;1258;97906;-75
2023/07/23 02:35:11;;;;;;;8.20;7.30;;;;;;;11.72;74.03;97239.80;105052;1260;97792;-84
2023/07/23 02:37:39;;;;;;;9.50;7.60;;;;;;;11.68;74.04;97240.44;104923;1261;102306;-84
2023/07/23 02:40:07;;;;;;;9.50;7.00;;;;;;;11.66;74.17;97243.73;104903;1269;101591;-84
2023/07/23 02:42:35;;;;;;;9.50;7.40;;;;;;;11.67;74.21;97247.05;104928;1261;99877;-84
2023/07/23 02:45:03;;;;;;;8.90;7.60;;;;;;;11.63;74.05;97242.02;104997;1271;96570;-85
2023/07/23 02:47:31;;;;;;;10.00;7.70;;;;;;;11.51;73.93;97244.21;104671;1256;97379;-75
2023/07/23 02:49:59;;;;;;;10.50;8.30;;;;;;;11.40;74.31;97241.76;104848;1263;101125;-75
2023/07/23 02:52:26;;;;;;;12.80;7.60;;;;;;;11.39;74.55;97243.05;104843;1256;100064;-84
2023/07/23 02:54:54;;;;;;;10.90;8.00;;;;;;;11.36;74.41;97241.92;105003;1258;106989;-83
2023/07/23 02:57:22;;;;;;;8.10;7.20;;;;;;;11.30;74.59;97244.17;104766;1261;96724;-84
2023/07/23 02:59:50;;;;;;;10.20;7.10;;;;;;;11.30;74.70;97244.38;104944;1260;97032;-84
2023/07/23 03:02:19;;;;;;;9.70;7.30;;;;;;;11.30;74.58;97241.89;105001;1256;111799;-74
2023/07/23 03:04:47;;;;;;;8.60;7.40;;;;;;;11.25;74.57;97247.95;104929;1255;99774;-74
2023/07/23 03:07:14;;;;;;;9.30;7.00;;;;;;;11.21;74.76;97245.45;104857;1268;98352;-75
2023/07/23 03:09:42;;;;;;;8.40;7.30;;;;;;;11.18;74.74;97243.27;104913;1259;97842;-74
2023/07/23 03:12:10;;;;;;;7.80;6.80;;;;;;;11.17;74.87;97245.67;105021;1261;97875;-83
2023/07/23 03:14:38;;;;;;;10.20;7.70;;;;;;;11.17;75.08;97240.61;104917;1255;102461;-74
2023/07/23 03:17:05;;;;;;;8.50;7.00;;;;;;;11.21;75.13;97242.09;104835;1258;100226;-74
2023/07/23 03:19:33;;;;;;;7.90;7.00;;;;;;;11.23;75.09;97240.53;105075;1258;100000;-75
2023/07/23 03:22:01;;;;;;;9.10;7.20;;;;;;;11.25;75.25;97242.46;105170;1258;97913;-75
2023/07/23 03:24:29;;;;;;;9.30;7.30;;;;;;;11.26;75.24;97243.45;105185;1257;96997;-75
2023/07/23 03:26:56;;;;;;;8.40;7.30;;;;;;;11.26;75.20;97240.33;104912;1258;102320;-75
2023/07/23 03:29:24;;;;;;;7.90;7.10;;;;;;;11.28;75.15;97242.52;104916;1260;101295;-74
2023/07/23 03:31:51;;;;;;;12.00;6.80;;;;;;;11.29;75.27;97241.64;105145;1259;98995;-75
2023/07/23 03:34:19;;;;;;;10.20;7.30;;;;;;;11.29;75.28;97238.89;104817;1258;97508;-84
2023/07/23 03:36:47;;;;;;;8.40;7.50;;;;;;;11.30;75.20;97242.13;105040;1256;96854;-84
2023/07/23 03:39:17;;;;;;;9.10;7.70;;;;;;;11.29;75.40;97243.39;104884;1256;100817;-84
2023/07/23 03:41:46;;;;;;;9.00;7.60;;;;;;;11.29;75.55;97243.34;105019;1259;101862;-83
2023/07/23 03:44:15;;;;;;;9.10;8.10;;;;;;;11.30;75.58;97244.70;105036;1256;100127;-84
2023/07/23 03:46:58;;;;;;;9.60;7.50;;;;;;;11.26;75.62;97240.58;104874;1264;96753;-81
2023/07/23 03:49:26;;;;;;;9.90;7.60;;;;;;;11.25;75.89;97246.70;104983;1261;96999;-81
2023/07/23 03:51:54;;;;;;;9.80;7.50;;;;;;;11.27;76.15;97246.23;104993;1258;100897;-71
2023/07/23 03:54:21;;;;;;;9.60;7.80;;;;;;;11.32;76.10;97243.20;105028;1258;100305;-70
2023/07/23 03:56:49;;;;;;;10.10;7.70;;;;;;;11.37;76.14;97242.98;104842;1258;99964;-70
2023/07/23 03:59:16;;;;;;;8.10;7.30;;;;;;;11.40;76.04;97243.59;104874;1260;96586;-71
2023/07/23 04:01:44;;;;;;;8.80;6.70;;;;;;;11.43;76.09;97245.27;104934;1260;98236;-71
2023/07/23 04:04:12;;;;;;;9.50;7.90;;;;;;;11.48;76.13;97246.17;104971;1268;100950;-71
2023/07/23 04:06:39;;;;;;;12.10;8.10;;;;;;;11.52;76.41;97244.69;104960;1260;100259;-71
2023/07/23 04:09:08;;;;;;;13.20;7.80;;;;;;;11.57;76.43;97246.16;104864;1259;98358;-71
2023/07/23 04:11:35;;;;;;;8.40;7.50;;;;;;;11.62;76.24;97250.52;104783;1261;96694;-83
2023/07/23 04:14:03;;;;;;;13.60;8.30;;;;;;;11.65;76.11;97246.16;104894;1261;97468;-83
2023/07/23 04:16:31;;;;;;;12.10;8.20;;;;;;;11.67;76.09;97242.08;104826;1272;101501;-83
2023/07/23 04:18:58;;;;;;;10.30;9.10;;;;;;;11.70;76.22;97247.48;104876;1265;100753;-84
2023/07/23 04:21:26;;;;;;;11.80;9.30;;;;;;;11.75;76.41;97246.83;104909;1265;98354;-77
2023/07/23 04:23:55;;;;;;;11.10;9.10;;;;;;;11.79;76.39;97242.48;105012;1269;96570;-77
2023/07/23 04:26:23;;;;;;;11.80;9.20;;;;;;;11.83;76.45;97244.94;105031;1258;97074;-77
2023/07/23 04:28:50;;;;;;;10.50;8.30;;;;;;;11.86;76.53;97243.31;104940;1258;101186;-78
2023/07/23 04:31:19;;;;;;;10.80;8.90;;;;;;;11.91;76.42;97243.83;104991;1261;100363;-77
2023/07/23 04:33:47;;;;;;;8.90;7.80;;;;;;;11.94;76.48;97242.05;104889;1256;99114;-73
2023/07/23 04:36:15;;;;;;;10.90;7.90;;;;;;;11.98;76.52;97241.34;104963;1260;97900;-77
2023/07/23 04:38:44;;;;;;;12.20;8.00;;;;;;;12.02;76.75;97240.26;104894;1261;97317;-73
2023/07/23 04:41:13;;;;;;;10.90;7.80;;;;;;;12.06;76.72;97241.54;104681;1256;102436;-73
2023/07/23 04:43:42;;;;;;;10.90;8.50;;;;;;;12.11;76.78;97239.14;105003;1255;101576;-73
2023/07/23 04:46:11;;;;;;;12.30;8.30;;;;;;;12.16;76.76;97240.23;105000;1259;100306;-74
2023/07/23 04:48:38;;;;;;;9.90;8.50;;;;;;;12.21;76.92;97235.70;104827;1253;97533;-77
2023/07/23 04:51:08;;;;;;;10.30;8.20;;;;;;;12.25;76.99;97232.05;104965;1260;97225;-77
2023/07/23 04:53:36;;;;;;;9.80;8.80;;;;;;;12.31;77.13;97239.30;104698;1267;101597;-77
2023/07/23 04:56:05;;;;;;;10.30;9.20;;;;;;;12.37;77.40;97237.65;104939;1254;100389;-77
2023/07/23 04:58:33;;;;;;;10.50;8.70;;;;;;;12.43;77.47;97230.95;104782;1262;100193;-77
2023/07/23 05:01:12;;;;;;;12.20;9.80;;;;;;;12.50;77.59;97226.95;104976;1260;96559;-74
2023/07/23 05:03:41;;;;;;;9.60;8.60;;;;;;;12.56;77.51;97227.63;104992;1256;96996;-75
2023/07/23 05:06:08;;;;;;;11.20;8.90;;;;;;;12.62;77.63;97225.63;104895;1260;101239;-75
2023/07/23 05:08:36;;;;;;;9.10;8.20;;;;;;;12.69;77.66;97220.82;104977;1261;101624;-74
2023/07/23 05:11:07;;;;;;;10.20;9.10;;;;;;;12.77;77.94;97220.19;105026;1259;106757;-75
2023/07/23 05:13:36;;;;;;;9.10;8.10;;;;;;;12.83;77.97;97219.55;104936;1258;96827;-74
2023/07/23 05:16:04;;;;;;;9.80;7.40;;;;;;;12.91;78.17;97222.80;104966;1259;97085;-77
2023/07/23 05:18:32;;;;;;;9.20;7.40;;;;;;;13.00;78.39;97220.42;104698;1264;101208;-80
2023/07/23 05:21:03;;;;;;;8.30;7.00;;;;;;;13.09;78.55;97220.33;104853;1262;100446;-78
2023/07/23 05:23:30;;;;;;;8.20;6.70;;;;;;;13.20;78.68;97221.82;104989;1254;98657;-77
2023/07/23 05:25:58;;;;;;;11.20;8.00;;;;;;;13.29;78.64;97217.14;105006;1255;96639;-77
2023/07/23 05:28:26;;;;;;;9.10;6.80;;;;;;;13.39;78.72;97216.94;104943;1260;96519;-76
2023/07/23 05:31:00;;;;;;;9.80;7.30;;;;;;;13.48;78.75;97217.21;104976;1260;101809;-77
2023/07/23 05:33:28;;;;;;;8.00;7.10;;;;;;;13.57;78.89;97217.39;105050;1255;101590;-76
2023/07/23 05:35:56;;;;;;;8.40;7.20;;;;;;;13.68;78.96;97220.20;104962;1260;100161;-77
2023/07/23 05:38:25;;;;;;;9.80;7.50;;;;;;;13.78;79.02;97217.98;104917;1258;96686;-77
2023/07/23 05:40:57;;;;;;;9.80;7.40;;;;;;;13.88;79.28;97216.91;104974;1261;97110;-77
2023/07/23 05:43:25;;;;;;;9.90;7.30;;;;;;;13.98;79.44;97221.94;104933;1260;102485;-77
2023/07/23 05:45:53;;;;;;;7.80;7.00;;;;;;;14.09;79.36;97220.33;105120;1261;101964;-74
2023/07/23 05:48:20;;;;;;;10.80;7.00;;;;;;;14.22;79.27;97219.40;104908;1258;107658;-75
2023/07/23 05:50:48;;;;;;;7.70;6.60;;;;;;;14.35;79.36;97215.08;104876;1261;96573;-75
2023/07/23 05:53:16;;;;;;;8.80;6.40;;;;;;;14.49;79.07;97214.08;104845;1258;97335;-75
2023/07/23 05:55:44;;;;;;;9.40;6.60;;;;;;;14.62;79.09;97214.83;104878;1259;100712;-75
2023/07/23 05:58:11;;;;;;;8.80;6.90;;;;;;;14.74;79.11;97219.14;104946;1264;100559;-75
2023/07/23 06:00:39;;;;;;;7.80;6.20;;;;;;;14.86;78.99;97217.80;105030;1259;98933;-78
2023/07/23 06:03:07;;;;;;;8.10;6.40;;;;;;;14.99;79.10;97216.20;104984;1257;97587;-77
2023/07/23 06:05:35;;;;;;;7.90;6.40;;;;;;;15.11;79.07;97214.58;105000;1258;97146;-77
2023/07/23 06:08:03;;;;;;;7.60;6.10;;;;;;;15.23;78.71;97212.83;104932;1263;100728;-77
2023/07/23 06:10:31;;;;;;;9.60;5.30;;;;;;;15.37;78.43;97211.66;104891;1271;101524;-81
2023/07/23 06:12:59;;;;;;;7.90;6.00;;;;;;;15.50;78.16;97210.52;104707;1264;99908;-76
2023/07/23 06:15:27;;;;;;;10.00;6.20;;;;;;;15.64;77.57;97211.63;104996;1258;96837;-77
2023/07/23 06:17:55;;;;;;;7.00;5.50;;;;;;;15.76;77.05;97211.28;104968;1258;96833;-76
2023/07/23 06:20:22;;;;;;;6.90;5.20;;;;;;;15.91;76.78;97206.65;104968;1260;102515;-77
2023/07/23 06:22:50;;;;;;;6.60;5.50;;;;;;;16.03;76.44;97205.09;104893;1270;100329;-77
2023/07/23 06:25:18;;;;;;;6.30;5.50;;;;;;;16.17;76.33;97202.45;104978;1258;99935;-75
2023/07/23 06:27:45;;;;;;;7.70;5.70;;;;;;;16.32;76.07;97201.02;105005;1260;97092;-75
2023/07/23 06:30:13;;;;;;;9.10;5.60;;;;;;;16.45;75.96;97201.08;104841;1258;96977;-74
2023/07/23 06:32:41;;;;;;;7.40;5.90;;;;;;;16.62;75.32;97198.19;105039;1259;103154;-74
2023/07/23 06:35:10;;;;;;;8.30;5.30;;;;;;;16.79;74.91;97198.02;104946;1256;100346;-74
2023/07/23 06:37:40;;;;;;;7.20;5.10;;;;;;;16.96;74.37;97195.91;104698;1275;99126;-73
2023/07/23 06:40:09;;;;;;;6.20;5.10;;;;;;;17.12;73.67;97192.30;105049;1260;96644;-74
2023/07/23 06:42:37;;;;;;;10.00;5.80;;;;;;;17.26;73.22;97188.52;104900;1260;97209;-75
2023/07/23 06:45:05;;;;;;;8.30;5.50;;;;;;;17.43;72.92;97186.59;105009;1258;101264;-76
2023/07/23 06:47:32;;;;;;;5.80;5.00;;;;;;;17.60;72.30;97192.41;104969;1261;108697;-81
2023/07/23 06:50:00;;;;;;;7.20;5.40;;;;;;;17.75;71.83;97189.91;104976;1256;99380;-76
2023/07/23 06:52:28;;;;;;;10.60;5.70;;;;;;;17.93;71.40;97183.27;104973;1258;97525;-76
2023/07/23 06:54:56;;;;;;;6.50;5.00;;;;;;;18.10;70.73;97184.09;104992;1258;97092;-77
2023/07/23 06:57:25;;;;;;;7.90;5.10;;;;;;;18.28;70.35;97179.04;104906;1261;101148;-77
2023/07/23 06:59:53;;;;;;;6.90;4.80;;;;;;;18.45;69.76;97176.39;104804;1263;100654;-76
2023/07/23 07:02:20;;;;;;;6.00;4.60;;;;;;;18.63;69.28;97180.91;105010;1262;98981;-76
2023/07/23 07:04:48;;;;;;;5.20;4.60;;;;;;;18.81;68.63;97179.89;105001;1260;96761;-74
2023/07/23 07:07:16;;;;;;;5.60;4.90;;;;;;;18.97;68.22;97185.83;104916;1261;97047;-74
2023/07/23 07:09:44;;;;;;;7.40;4.50;;;;;;;19.11;67.70;97183.45;104731;1267;101339;-73
2023/07/23 07:12:11;;;;;;;5.80;4.80;;;;;;;19.25;67.13;97181.29;104856;1260;100497;-74
2023/07/23 07:14:39;;;;;;;4.80;4.30;;;;;;;19.38;66.72;97178.84;104854;1259;99053;-76
2023/07/23 07:17:07;;;;;;;6.60;4.40;;;;;;;19.52;66.66;97174.09;104910;1261;96573;-76
2023/07/23 07:19:34;;;;;;;8.60;4.80;;;;;;;19.66;66.27;97167.68;105634;1259;98421;-77
2023/07/23 07:22:02;;;;;;;6.90;4.40;;;;;;;19.82;65.88;97166.68;106090;1260;101225;-76
2023/07/23 07:24:30;;;;;;;6.70;4.50;;;;;;;19.98;65.48;97160.56;105033;1260;101516;-81
2023/07/23 07:26:57;;;;;;;6.20;4.30;;;;;;;20.17;65.25;97159.33;105181;1258;99017;-79
2023/07/23 07:29:25;;;;;;;6.10;4.90;;;;;;;20.35;64.69;97154.95;105001;1261;96503;-76
2023/07/23 07:31:53;;;;;;;7.40;4.30;;;;;;;20.48;64.13;97155.95;104934;1263;98234;-79
2023/07/23 07:34:20;;;;;;;9.00;4.20;;;;;;;20.59;63.95;97155.74;105029;1262;101348;-78
2023/07/23 07:36:48;;;;;;;8.90;4.30;;;;;;;20.68;63.50;97155.86;104855;1261;100508;-79
2023/07/23 07:39:16;;;;;;;4.80;4.30;;;;;;;20.77;62.94;97154.94;104743;1260;99214;-79
2023/07/23 07:41:43;;;;;;;5.90;4.60;;;;;;;20.85;62.60;97156.65;104903;1261;97482;-78
2023/07/23 07:44:11;;;;;;;4.90;3.80;;;;;;;20.94;62.18;97151.98;104932;1259;97126;-77
2023/07/23 07:46:39;;;;;;;7.10;4.20;;;;;;;21.01;61.87;97154.14;105090;1262;101155;-78
2023/07/23 07:49:06;;;;;;;5.30;4.00;;;;;;;21.08;61.49;97156.30;105095;1261;100743;-78
2023/07/23 07:51:36;;;;;;;4.60;4.00;;;;;;;21.13;61.19;97152.13;105527;1255;98928;-80
2023/07/23 07:54:04;;;;;;;7.00;3.80;;;;;;;21.20;61.01;97148.71;105199;1262;96583;-77
2023/07/23 07:56:32;;;;;;;5.70;4.00;;;;;;;21.27;60.79;97153.98;104915;1260;98412;-77
2023/07/23 07:59:00;;;;;;;4.20;3.80;;;;;;;21.34;60.09;97156.36;104838;1271;100992;-77
2023/07/23 08:01:28;;;;;;;4.50;3.70;;;;;;;21.40;59.77;97153.78;104832;1261;100311;-81
2023/07/23 08:03:56;;;;;;;4.70;4.10;;;;;;;21.47;59.50;97151.64;104756;1253;98670;-75
2023/07/23 08:06:25;;;;;;;6.40;3.90;;;;;;;21.56;59.12;97153.98;104939;1259;96568;-76
2023/07/23 08:08:58;;;;;;;6.00;3.60;;;;;;;21.68;58.89;97159.04;105009;1261;96993;-76
2023/07/23 08:11:26;;;;;;;5.20;4.40;;;;;;;21.75;58.67;97159.58;104930;1260;101956;-76
2023/07/23 08:13:54;;;;;;;7.00;4.20;;;;;;;21.76;58.83;97159.77;105124;1260;101410;-76
2023/07/23 08:16:22;;;;;;;4.80;4.30;;;;;;;21.72;58.35;97157.52;104960;1260;98696;-77
2023/07/23 08:18:50;;;;;;;5.00;4.40;;;;;;;21.66;57.75;97153.55;104871;1260;96944;-77
2023/07/23 08:21:18;;;;;;;6.10;4.10;;;;;;;21.67;58.21;97155.10;104596;1264;98000;-79
2023/07/23 08:23:46;;;;;;;5.40;3.70;;;;;;;21.71;57.85;97149.51;104939;1257;101437;-78
2023/07/23 08:26:18;;;;;;;5.00;4.00;;;;;;;21.78;57.69;97145.43;105019;1260;101681;-77
2023/07/23 08:28:51;;;;;;;5.70;4.00;;;;;;;21.90;57.54;97138.77;104965;1267;99385;-78
2023/07/23 08:31:19;;;;;;;4.70;3.80;;;;;;;22.15;57.17;97135.39;104888;1260;96642;-76
2023/07/23 08:33:48;;;;;;;4.80;3.60;;;;;;;22.48;56.56;97135.57;104842;1261;97790;-77
2023/07/23 08:36:17;;;;;;;5.10;3.60;;;;;;;22.72;56.32;97136.35;104955;1260;101374;-76
2023/07/23 08:38:45;;;;;;;4.60;4.10;;;;;;;22.80;55.92;97136.73;104897;1269;101765;-74
2023/07/23 08:41:38;;;;;;;5.00;3.90;;;;;;;22.90;55.36;97133.05;104722;1262;99134;-77
2023/07/23 08:44:23;;;;;;;4.10;3.60;;;;;;;23.30;55.16;97131.19;104876;1260;97541;-79
2023/07/23 08:47:07;;;;;;;8.30;3.70;;;;;;;23.76;54.90;97128.17;105113;1267;98107;-79
2023/07/23 08:49:35;;;;;;;4.60;3.60;;;;;;;24.09;54.08;97128.27;104703;1264;101510;-79
2023/07/23 08:52:05;;;;;;;3.90;3.30;;;;;;;24.29;53.24;97129.77;104961;1260;99989;-79
2023/07/23 08:54:35;;;;;;;4.00;3.30;;;;;;;24.62;53.12;97128.69;104768;1271;99132;-76
2023/07/23 08:57:04;;;;;;;4.10;3.40;;;;;;;25.05;52.32;97126.72;104805;1262;97250;-78
2023/07/23 08:59:34;;;;;;;6.00;3.30;;;;;;;25.29;51.63;97125.77;104754;1266;97023;-78
2023/07/23 09:02:03;;;;;;;6.00;3.60;;;;;;;25.46;50.93;97125.02;104599;1274;101383;-75
2023/07/23 09:04:30;;;;;;;3.90;3.20;;;;;;;25.71;50.90;97123.99;104740;1261;101250;-75
2023/07/23 09:06:59;;;;;;;4.10;3.40;;;;;;;26.05;50.13;97123.87;104933;1259;99064;-77
2023/07/23 09:09:27;;;;;;;5.70;3.10;;;;;;;26.48;49.86;97122.64;104880;1261;96677;-77
2023/07/23 09:11:54;;;;;;;4.10;2.90;;;;;;;26.92;49.20;97126.21;104980;1260;97118;-76
2023/07/23 09:14:22;;;;;;;3.30;2.90;;;;;;;27.28;48.21;97125.21;105021;1258;101281;-76
2023/07/23 09:16:50;;;;;;;5.30;3.00;;;;;;;27.51;47.61;97120.04;105061;1265;100202;-77
2023/07/23 09:19:26;;;;;;;4.80;3.20;;;;;;;27.77;46.91;97121.71;104961;1259;100167;-87
2023/07/23 09:22:08;;;;;;;3.70;2.70;;;;;;;28.00;45.81;97117.28;104859;1263;96637;-80
2023/07/23 09:24:46;;;;;;;3.70;2.90;;;;;;;28.18;44.54;97117.27;104841;1263;96663;-79
2023/07/23 09:27:16;;;;;;;5.80;3.30;;;;;;;28.42;43.68;97114.94;104588;1277;100795;-79
2023/07/23 09:29:54;;;;;;;5.00;2.50;;;;;;;28.67;43.73;97113.04;104707;1261;100078;-79
2023/07/23 09:32:30;;;;;;;2.80;2.60;;;;;;;28.81;42.42;97111.32;104530;1266;100890;-83
2023/07/23 09:35:07;;;;;;;5.80;2.80;;;;;;;29.05;41.90;97110.36;104245;1268;96638;-76
2023/07/23 09:37:40;;;;;;;5.90;2.50;;;;;;;29.20;41.23;97107.71;104373;1266;97032;-81
2023/07/23 09:40:18;;;;;;;4.70;2.80;;;;;;;29.33;40.47;97106.05;104594;1268;100034;-72
2023/07/23 09:42:54;;;;;;;3.70;2.40;;;;;;;29.50;40.30;97103.59;104531;1267;102104;-70
2023/07/23 09:45:31;;;;;;;3.50;2.90;;;;;;;29.71;40.46;97099.86;104567;1267;98777;-72
2023/07/23 09:48:06;;;;;;;2.50;2.30;;;;;;;29.80;39.71;97096.57;104401;1276;96659;-75
2023/07/23 09:50:37;;;;;;;3.80;2.40;;;;;;;29.93;39.09;97093.87;104410;1270;97120;-73
2023/07/23 09:53:09;;;;;;;2.90;2.70;;;;;;;30.03;38.52;97092.52;104038;1284;101580;-75
2023/07/23 09:55:40;;;;;;;4.70;2.60;;;;;;;29.99;37.88;97092.19;103665;1279;100399;-77
2023/07/23 09:58:11;;;;;;;2.50;2.30;;;;;;;29.59;36.90;97091.77;104297;1267;99944;-78
2023/07/23 10:00:40;;;;;;;4.30;2.50;;;;;;;29.30;36.81;97089.33;104354;1267;96584;-78
2023/07/23 10:03:08;;;;;;;3.90;2.90;;;;;;;29.34;37.16;97087.73;104382;1269;97821;-75
2023/07/23 10:05:37;;;;;;;3.30;2.40;;;;;;;29.52;37.32;97086.83;104113;1264;101514;-78
2023/07/23 10:08:05;;;;;;;4.70;2.70;;;;;;;29.54;36.77;97077.94;104429;1270;101627;-77
2023/07/23 10:10:33;;;;;;;4.30;2.60;;;;;;;29.37;36.26;97077.27;104435;1264;100306;-75
2023/07/23 10:13:01;;;;;;;4.40;2.50;;;;;;;29.08;36.32;97075.57;104227;1270;98455;-76
2023/07/23 10:15:30;;;;;;;2.50;2.30;;;;;;;28.79;36.63;97078.48;104367;1270;97094;-77
2023/07/23 10:18:01;;;;;;;4.70;2.10;;;;;;;28.38;36.35;97076.38;104465;1267;109235;-80
2023/07/23 10:20:31;;;;;;;2.80;2.40;;;;;;;27.91;35.88;97083.54;104703;1274;108387;-75
2023/07/23 10:23:05;;;;;;;4.80;2.50;;;;;;;27.65;36.09;97080.80;104511;1270;99195;-73
2023/07/23 10:25:46;;;;;;;5.30;2.50;;;;;;;27.59;36.45;97078.81;104656;1260;97556;-73
2023/07/23 10:28:55;;;;;;;3.80;2.20;;;;;;;27.88;37.30;97070.09;104563;1260;96747;-74
2023/07/23 10:31:43;;;;;;;4.90;2.70;;;;;;;28.31;36.91;97064.69;104313;1282;101336;-72
2023/07/23 10:34:55;;;;;;;3.10;2.30;;;;;;;28.55;36.73;97067.67;104303;1268;108819;-70
2023/07/23 10:37:25;;;;;;;6.00;2.50;;;;;;;28.52;35.85;97064.20;104243;1266;98602;-80
2023/07/23 10:40:33;;;;;;;4.50;2.60;;;;;;;28.36;35.34;97065.46;104279;1267;96932;-79
2023/07/23 10:43:59;;;;;;;5.30;2.80;;;;;;;28.20;35.38;97063.92;104372;1269;98042;-71
2023/07/23 10:46:38;;;;;;;3.60;2.80;;;;;;;28.43;35.66;97058.30;104186;1270;102568;-78
2023/07/23 10:49:24;;;;;;;2.50;2.30;;;;;;;28.68;35.71;97059.86;103947;1273;100611;-79
2023/07/23 10:51:52;;;;;;;4.20;2.60;;;;;;;28.60;34.78;97059.14;103596;1273;109488;-82
2023/07/23 10:54:21;;;;;;;5.50;2.40;;;;;;;28.66;35.13;97058.09;103836;1271;96605;-83
2023/07/23 10:56:50;;;;;;;2.70;2.30;;;;;;;28.88;35.46;97056.38;103487;1273;97112;-81
2023/07/23 10:59:21;;;;;;;4.30;2.50;;;;;;;29.07;34.30;97056.20;103992;1272;102435;-81
2023/07/23 11:01:52;;;;;;;4.10;2.40;;;;;;;29.11;33.36;97054.05;103669;1272;100710;-83
2023/07/23 11:04:27;;;;;;;5.30;2.90;;;;;;;28.97;33.18;97055.45;104102;1267;100255;-82
2023/07/23 11:07:04;;;;;;;2.90;2.60;;;;;;;28.73;33.23;97056.23;104139;1267;98022;-84
2023/07/23 11:09:35;;;;;;;3.40;2.20;;;;;;;28.50;33.66;97057.13;104499;1277;98175;-74
2023/07/23 11:12:05;;;;;;;2.90;2.40;;;;;;;28.24;33.30;97060.89;104391;1267;101388;-74
2023/07/23 11:14:34;;;;;;;5.30;3.00;;;;;;;27.97;33.44;97059.54;104462;1255;100589;-75
2023/07/23 11:17:04;;;;;;;6.00;3.10;;;;;;;27.80;34.08;97056.48;104979;1261;98904;-81
2023/07/23 11:19:33;;;;;;;4.30;3.00;;;;;;;27.71;34.04;97051.84;104778;1260;97814;-80
2023/07/23 11:22:04;;;;;;;3.50;2.70;;;;;;;27.59;34.27;97046.71;104700;1261;96996;-80
2023/07/23 11:24:32;;;;;;;2.60;2.30;;;;;;;27.44;34.02;97046.98;104750;1260;101428;-80
2023/07/23 11:27:02;;;;;;;3.80;2.40;;;;;;;27.26;34.34;97051.25;105168;1258;100203;-80
2023/07/23 11:29:31;;;;;;;4.50;3.00;;;;;;;27.16;34.85;97049.77;105142;1258;98958;-79
2023/07/23 11:32:01;;;;;;;4.40;3.20;;;;;;;27.15;35.14;97041.58;104729;1265;96685;-81